WetterOnline ( https://www.wetteronline.de )

Wetter aktuell Bamberg

Aktuelles Wetter: Bamberg (243m)

6-stündlich | Neueste Meldungen
Ortszeit Temperatur Wetter
Di, 18.06. 14:00 27.2° C wolkig
Di, 18.06. 8:00 17.0° C wolkig
Di, 18.06. 2:00 12.1° C wolkig
Mo, 17.06. 20:00 20.3° C bewölkt
Mo, 17.06. 14:00 22.3° C leicht bewölkt
Mo, 17.06. 8:00 15.7° C leichter Regen
Mo, 17.06. 2:00 14.4° C leichter Regen
So, 16.06. 20:00 20.5° C bedeckt
Ortszeit Temperatur Wetter
Di, 18.06. 19:00 28.5° C wolkig
Di, 18.06. 18:50 28.5° C bewölkt
Di, 18.06. 18:40 28.2° C wolkig
Di, 18.06. 18:30 28.4° C leicht bewölkt
Di, 18.06. 18:20 28.4° C leicht bewölkt
Di, 18.06. 18:10 29.1° C leicht bewölkt
Di, 18.06. 18:00 28.9° C bewölkt
Di, 18.06. 17:30 28.6° C bedeckt
Di, 18.06. 17:00 27.9° C wolkig
Di, 18.06. 16:30 28.7° C wolkig
Di, 18.06. 16:00 28.3° C wolkig
Ortszeit Relative Feuchte Sichtweite
Di, 18.06. 14:00 53% 50 km
Di, 18.06. 8:00 85% 45 km
Di, 18.06. 2:00 97% 23 km
Mo, 17.06. 20:00 68% >70 km
Mo, 17.06. 14:00 56% >70 km
Mo, 17.06. 8:00 92% 27 km
Mo, 17.06. 2:00 91% 16 km
So, 16.06. 20:00 61% 65 km
Ortszeit Relative Feuchte Sichtweite
Di, 18.06. 19:00 44% 50 km
Di, 18.06. 18:50 44% -
Di, 18.06. 18:40 42% -
Di, 18.06. 18:30 42% 55 km
Di, 18.06. 18:20 42% -
Di, 18.06. 18:10 39% -
Di, 18.06. 18:00 40% 60 km
Di, 18.06. 17:30 45% 40 km
Di, 18.06. 17:00 48% 55 km
Di, 18.06. 16:30 45% 45 km
Di, 18.06. 16:00 48% 45 km
Ortszeit Niederschlagsmenge Niederschlagsart
Di, 18.06. 14:00 0.0 l/m2 in 6 Std. -
Di, 18.06. 8:00 0.1 l/m2 in 12 Std. -
Di, 18.06. 2:00 0.1 l/m2 in 6 Std. Regen
Mo, 17.06. 20:00 0.3 l/m2 in 12 Std. Regen
Mo, 17.06. 14:00 0.3 l/m2 in 6 Std. Regen
Mo, 17.06. 8:00 1 l/m2 in 12 Std. Regen
Mo, 17.06. 2:00 0.3 l/m2 in 6 Std. Regen
So, 16.06. 20:00 0.1 l/m2 in 12 Std. -
Ortszeit Niederschlagsmenge Niederschlagsart
Di, 18.06. 19:00 0.0 l/m2 in 1 Std. -
Di, 18.06. 18:50 keine Meldung -
Di, 18.06. 18:40 keine Meldung -
Di, 18.06. 18:30 0.0 l/m2 in 30 Min -
Di, 18.06. 18:20 keine Meldung -
Di, 18.06. 18:10 keine Meldung -
Di, 18.06. 18:00 0.0 l/m2 in 1 Std. -
Di, 18.06. 17:30 0.0 l/m2 in 30 Min -
Di, 18.06. 17:00 0.0 l/m2 in 1 Std. -
Di, 18.06. 16:30 0.0 l/m2 in 30 Min -
Di, 18.06. 16:00 0.0 l/m2 in 1 Std. -
Ortszeit Stärke Spitze Richtung
km/h Bft. km/h Grad Sektor
Di, 18.06. 14:00 9 2 20 180° S
Di, 18.06. 8:00 6 1 9 160° S
Di, 18.06. 2:00 4 1 14 100° O
Mo, 17.06. 20:00 4 1 32 190° S
Mo, 17.06. 14:00 13 3 30 250° W
Mo, 17.06. 8:00 6 1 13 130° SO
Mo, 17.06. 2:00 6 1 13 120° SO
So, 16.06. 20:00 6 1 37 220° SW
Ortszeit Stärke Spitze Richtung
km/h Bft. km/h Grad Sektor
Di, 18.06. 19:00 11 2 30 180° S
Di, 18.06. 18:50 11 2 - 180° S
Di, 18.06. 18:40 13 3 - 180° S
Di, 18.06. 18:30 14 3 29 190° S
Di, 18.06. 18:20 14 3 - 190° S
Di, 18.06. 18:10 14 3 - 190° S
Di, 18.06. 18:00 15 3 28 200° S
Di, 18.06. 17:30 11 2 29 190° S
Di, 18.06. 17:00 9 2 26 180° S
Di, 18.06. 16:30 11 2 25 180° S
Di, 18.06. 16:00 9 2 24 190° S
Ortszeit Untergrenze Bedeckung Gattung
total tief tief mittel hoch
Di, 18.06. 14:00 6300 m 7/8 5/8 - - -
Di, 18.06. 8:00 3900 m 8/8 3/8 - - -
Di, 18.06. 2:00 9000 m 7/8 0/8 - - -
Mo, 17.06. 20:00 2700 m 8/8 7/8 - - -
Mo, 17.06. 14:00 1170 m 4/8 3/8 - - -
Mo, 17.06. 8:00 1320 m 8/8 8/8 - - -
Mo, 17.06. 2:00 <30 m 8/8 0/8 - - -
So, 16.06. 20:00 1800 m 8/8 8/8 - - -
Ortszeit Bedeckungsgrad in Achtel und Wolkenuntergrenze
Di, 18.06. 19:00 6(6600m) 7(8400m) 7(9000m)
Di, 18.06. 18:50 6(6600m) 7(8400m) 7(9000m)
Di, 18.06. 18:40 6
Di, 18.06. 18:30 2(6900m)
Di, 18.06. 18:20 2(6900m)
Di, 18.06. 18:10 2
Di, 18.06. 18:00 1(5100m) 7(6900m) 7(9000m)
Di, 18.06. 17:30 1(3300m) 8(6000m) 8(6900m)
Di, 18.06. 17:00 1(2100m) 7(6900m) 7(8400m)
Di, 18.06. 16:30 5(6300m) 6(7500m) 7(8700m)
Di, 18.06. 16:00 4(6600m) 8(8400m)
Ortszeit Luftdruck NN (hPa) Tendenz (hPa in 3 Std.)
Di, 18.06. 14:00 1013 - 1,8
Di, 18.06. 8:00 1017 + 0,3
Di, 18.06. 2:00 1017 + 0,4
Mo, 17.06. 20:00 1014 + 0,1
Mo, 17.06. 14:00 1014 + 0,6
Mo, 17.06. 8:00 1013 0,0
Mo, 17.06. 2:00 1013 + 1,0
So, 16.06. 20:00 1009 - 0,2
Ortszeit Luftdruck NN (hPa) Tendenz (hPa in 3 Std.)
Di, 18.06. 19:00 1009 - 2,0
Di, 18.06. 18:50 1009 keine Meldung
Di, 18.06. 18:40 1009 keine Meldung
Di, 18.06. 18:30 1009 - 2,1
Di, 18.06. 18:20 1009 keine Meldung
Di, 18.06. 18:10 1010 keine Meldung
Di, 18.06. 18:00 1010 - 1,8
Di, 18.06. 17:30 1010 - 1,9
Di, 18.06. 17:00 1011 - 2,2
Di, 18.06. 16:30 1011 - 2,3
Di, 18.06. 16:00 1011 - 2,1
Ortszeit Schneehöhe (cm)
Di, 18.06. 14:00 0
Di, 18.06. 8:00 0
Di, 18.06. 2:00 0
Mo, 17.06. 20:00 0
Mo, 17.06. 14:00 0
Mo, 17.06. 8:00 0
Mo, 17.06. 2:00 0
So, 16.06. 20:00 0
Ortszeit Schneehöhe (cm)
Di, 18.06. 19:00 0
Di, 18.06. 18:50 0
Di, 18.06. 18:40 -
Di, 18.06. 18:30 0
Di, 18.06. 18:20 0
Di, 18.06. 18:10 -
Di, 18.06. 18:00 0
Di, 18.06. 17:30 0
Di, 18.06. 17:00 0
Di, 18.06. 16:30 0
Di, 18.06. 16:00 0
Link zu dieser Seite / Seite empfehlen

Das Wetter in ...